sensor_id;sensor_type;location;lat;lon;timestamp;temperature;humidity
12446;DHT22;6287;50.984;7.022;2022-11-20T00:01:35;3.90;99.90
12446;DHT22;6287;50.984;7.022;2022-11-20T00:04:00;3.80;99.90
12446;DHT22;6287;50.984;7.022;2022-11-20T00:06:29;3.80;99.90
12446;DHT22;6287;50.984;7.022;2022-11-20T00:08:58;3.80;99.90
12446;DHT22;6287;50.984;7.022;2022-11-20T00:11:28;3.80;99.90
12446;DHT22;6287;50.984;7.022;2022-11-20T00:13:56;3.80;99.90
12446;DHT22;6287;50.984;7.022;2022-11-20T00:16:29;3.80;99.90
12446;DHT22;6287;50.984;7.022;2022-11-20T00:18:58;3.80;99.90
12446;DHT22;6287;50.984;7.022;2022-11-20T00:21:29;3.80;99.90
12446;DHT22;6287;50.984;7.022;2022-11-20T00:23:58;3.80;99.90
12446;DHT22;6287;50.984;7.022;2022-11-20T00:26:28;3.80;99.90
12446;DHT22;6287;50.984;7.022;2022-11-20T00:28:59;3.80;99.90
12446;DHT22;6287;50.984;7.022;2022-11-20T00:31:25;3.90;99.90
12446;DHT22;6287;50.984;7.022;2022-11-20T00:33:52;3.90;99.90
12446;DHT22;6287;50.984;7.022;2022-11-20T00:36:22;3.90;99.90
12446;DHT22;6287;50.984;7.022;2022-11-20T00:38:52;3.90;99.90
12446;DHT22;6287;50.984;7.022;2022-11-20T00:41:17;3.90;99.90
12446;DHT22;6287;50.984;7.022;2022-11-20T00:43:43;3.90;99.90
12446;DHT22;6287;50.984;7.022;2022-11-20T00:46:16;3.90;99.90
12446;DHT22;6287;50.984;7.022;2022-11-20T00:48:42;3.90;99.90
12446;DHT22;6287;50.984;7.022;2022-11-20T00:51:11;3.80;99.90
12446;DHT22;6287;50.984;7.022;2022-11-20T00:53:37;3.80;99.90
12446;DHT22;6287;50.984;7.022;2022-11-20T00:56:07;3.80;99.90
12446;DHT22;6287;50.984;7.022;2022-11-20T00:58:35;3.80;99.90
12446;DHT22;6287;50.984;7.022;2022-11-20T01:01:05;3.80;99.90
12446;DHT22;6287;50.984;7.022;2022-11-20T01:03:32;3.70;99.90
12446;DHT22;6287;50.984;7.022;2022-11-20T01:06:03;3.70;99.90
12446;DHT22;6287;50.984;7.022;2022-11-20T01:08:30;3.70;99.90
12446;DHT22;6287;50.984;7.022;2022-11-20T01:11:04;3.70;99.90
12446;DHT22;6287;50.984;7.022;2022-11-20T01:13:33;3.70;99.90
12446;DHT22;6287;50.984;7.022;2022-11-20T01:16:15;3.70;99.90
12446;DHT22;6287;50.984;7.022;2022-11-20T01:18:43;3.70;99.90
12446;DHT22;6287;50.984;7.022;2022-11-20T01:21:20;3.70;99.90
12446;DHT22;6287;50.984;7.022;2022-11-20T01:23:49;3.80;99.90
12446;DHT22;6287;50.984;7.022;2022-11-20T01:26:19;3.80;99.90
12446;DHT22;6287;50.984;7.022;2022-11-20T01:28:46;3.80;99.90
12446;DHT22;6287;50.984;7.022;2022-11-20T01:31:26;3.80;99.90
12446;DHT22;6287;50.984;7.022;2022-11-20T01:33:53;3.80;99.90
12446;DHT22;6287;50.984;7.022;2022-11-20T01:36:21;3.80;99.90
12446;DHT22;6287;50.984;7.022;2022-11-20T01:38:57;3.80;99.90
12446;DHT22;6287;50.984;7.022;2022-11-20T01:41:27;3.70;99.90
12446;DHT22;6287;50.984;7.022;2022-11-20T01:44:15;3.70;99.90
12446;DHT22;6287;50.984;7.022;2022-11-20T01:46:56;3.70;99.90
12446;DHT22;6287;50.984;7.022;2022-11-20T01:52:10;3.70;99.90
12446;DHT22;6287;50.984;7.022;2022-11-20T01:54:51;3.70;99.90
12446;DHT22;6287;50.984;7.022;2022-11-20T01:57:19;3.70;99.90
12446;DHT22;6287;50.984;7.022;2022-11-20T01:59:52;3.60;99.90
12446;DHT22;6287;50.984;7.022;2022-11-20T02:02:22;3.60;99.90
12446;DHT22;6287;50.984;7.022;2022-11-20T02:04:51;3.70;99.90
12446;DHT22;6287;50.984;7.022;2022-11-20T02:07:23;3.70;99.90
12446;DHT22;6287;50.984;7.022;2022-11-20T02:09:51;3.70;99.90
12446;DHT22;6287;50.984;7.022;2022-11-20T02:12:19;3.70;99.90
12446;DHT22;6287;50.984;7.022;2022-11-20T02:15:06;3.70;99.90
12446;DHT22;6287;50.984;7.022;2022-11-20T02:17:34;3.70;99.90
12446;DHT22;6287;50.984;7.022;2022-11-20T02:20:02;3.70;99.90
12446;DHT22;6287;50.984;7.022;2022-11-20T02:22:38;3.70;99.90
12446;DHT22;6287;50.984;7.022;2022-11-20T02:25:07;3.70;99.90
12446;DHT22;6287;50.984;7.022;2022-11-20T02:27:33;3.70;99.90
12446;DHT22;6287;50.984;7.022;2022-11-20T02:30:04;3.60;99.90
12446;DHT22;6287;50.984;7.022;2022-11-20T02:32:35;3.70;99.90
12446;DHT22;6287;50.984;7.022;2022-11-20T02:38:02;3.70;99.90
12446;DHT22;6287;50.984;7.022;2022-11-20T02:40:28;3.70;99.90
12446;DHT22;6287;50.984;7.022;2022-11-20T02:42:57;3.60;99.90
12446;DHT22;6287;50.984;7.022;2022-11-20T02:45:27;3.60;99.90
12446;DHT22;6287;50.984;7.022;2022-11-20T02:47:53;3.60;99.90
12446;DHT22;6287;50.984;7.022;2022-11-20T02:50:23;3.60;99.90
12446;DHT22;6287;50.984;7.022;2022-11-20T02:52:49;3.50;99.90
12446;DHT22;6287;50.984;7.022;2022-11-20T02:55:14;3.50;99.90
12446;DHT22;6287;50.984;7.022;2022-11-20T02:57:40;3.50;99.90
12446;DHT22;6287;50.984;7.022;2022-11-20T03:00:07;3.60;99.90
12446;DHT22;6287;50.984;7.022;2022-11-20T03:02:35;3.60;99.90
12446;DHT22;6287;50.984;7.022;2022-11-20T03:05:00;3.60;99.90
12446;DHT22;6287;50.984;7.022;2022-11-20T03:07:26;3.60;99.90
12446;DHT22;6287;50.984;7.022;2022-11-20T03:09:51;3.60;99.90
12446;DHT22;6287;50.984;7.022;2022-11-20T03:12:17;3.70;99.90
12446;DHT22;6287;50.984;7.022;2022-11-20T03:14:42;3.70;99.90
12446;DHT22;6287;50.984;7.022;2022-11-20T03:17:10;3.70;99.90
12446;DHT22;6287;50.984;7.022;2022-11-20T03:19:36;3.70;99.90
12446;DHT22;6287;50.984;7.022;2022-11-20T03:22:04;3.70;99.90
12446;DHT22;6287;50.984;7.022;2022-11-20T03:24:29;3.60;99.90
12446;DHT22;6287;50.984;7.022;2022-11-20T03:26:57;3.60;99.90
12446;DHT22;6287;50.984;7.022;2022-11-20T03:29:23;3.50;99.90
12446;DHT22;6287;50.984;7.022;2022-11-20T03:31:51;3.60;99.90
12446;DHT22;6287;50.984;7.022;2022-11-20T03:34:16;3.60;99.90
12446;DHT22;6287;50.984;7.022;2022-11-20T03:36:44;3.60;99.90
12446;DHT22;6287;50.984;7.022;2022-11-20T03:39:12;3.60;99.90
12446;DHT22;6287;50.984;7.022;2022-11-20T03:41:41;3.60;99.90
12446;DHT22;6287;50.984;7.022;2022-11-20T03:44:09;3.60;99.90
12446;DHT22;6287;50.984;7.022;2022-11-20T03:46:38;3.60;99.90
12446;DHT22;6287;50.984;7.022;2022-11-20T03:49:06;3.70;99.90
12446;DHT22;6287;50.984;7.022;2022-11-20T03:51:35;3.70;99.90
12446;DHT22;6287;50.984;7.022;2022-11-20T03:54:04;3.70;99.90
12446;DHT22;6287;50.984;7.022;2022-11-20T03:56:35;3.60;99.90
12446;DHT22;6287;50.984;7.022;2022-11-20T03:59:01;3.70;99.90
12446;DHT22;6287;50.984;7.022;2022-11-20T04:01:35;3.70;99.90
12446;DHT22;6287;50.984;7.022;2022-11-20T04:04:04;3.70;99.90
12446;DHT22;6287;50.984;7.022;2022-11-20T04:06:37;3.60;99.90
12446;DHT22;6287;50.984;7.022;2022-11-20T04:09:03;3.60;99.90
12446;DHT22;6287;50.984;7.022;2022-11-20T04:11:33;3.50;99.90
12446;DHT22;6287;50.984;7.022;2022-11-20T04:14:04;3.50;99.90
12446;DHT22;6287;50.984;7.022;2022-11-20T04:16:33;3.50;99.90
12446;DHT22;6287;50.984;7.022;2022-11-20T04:19:00;3.50;99.90
12446;DHT22;6287;50.984;7.022;2022-11-20T04:21:27;3.50;99.90
12446;DHT22;6287;50.984;7.022;2022-11-20T04:23:56;3.60;99.90
12446;DHT22;6287;50.984;7.022;2022-11-20T04:26:25;3.50;99.90
12446;DHT22;6287;50.984;7.022;2022-11-20T04:28:56;3.50;99.90
12446;DHT22;6287;50.984;7.022;2022-11-20T04:31:24;3.40;99.90
12446;DHT22;6287;50.984;7.022;2022-11-20T04:33:53;3.40;99.90
12446;DHT22;6287;50.984;7.022;2022-11-20T04:36:25;3.40;99.90
12446;DHT22;6287;50.984;7.022;2022-11-20T04:38:55;3.30;99.90
12446;DHT22;6287;50.984;7.022;2022-11-20T04:41:25;3.30;99.90
12446;DHT22;6287;50.984;7.022;2022-11-20T04:43:57;3.30;99.90
12446;DHT22;6287;50.984;7.022;2022-11-20T04:46:27;3.30;99.90
12446;DHT22;6287;50.984;7.022;2022-11-20T04:48:56;3.30;99.90
12446;DHT22;6287;50.984;7.022;2022-11-20T04:51:22;3.30;99.90
12446;DHT22;6287;50.984;7.022;2022-11-20T04:53:47;3.20;99.90
12446;DHT22;6287;50.984;7.022;2022-11-20T04:56:18;3.30;99.90
12446;DHT22;6287;50.984;7.022;2022-11-20T04:58:44;3.30;99.90
12446;DHT22;6287;50.984;7.022;2022-11-20T05:01:14;3.30;99.90
12446;DHT22;6287;50.984;7.022;2022-11-20T05:03:41;3.30;99.90
12446;DHT22;6287;50.984;7.022;2022-11-20T05:06:08;3.30;99.90
12446;DHT22;6287;50.984;7.022;2022-11-20T05:08:34;3.30;99.90
12446;DHT22;6287;50.984;7.022;2022-11-20T05:11:04;3.30;99.90
12446;DHT22;6287;50.984;7.022;2022-11-20T05:13:30;3.40;99.90
12446;DHT22;6287;50.984;7.022;2022-11-20T05:16:06;3.40;99.90
12446;DHT22;6287;50.984;7.022;2022-11-20T05:18:35;3.40;99.90
12446;DHT22;6287;50.984;7.022;2022-11-20T05:21:01;3.40;99.90
12446;DHT22;6287;50.984;7.022;2022-11-20T05:23:31;3.40;99.90
12446;DHT22;6287;50.984;7.022;2022-11-20T05:26:00;3.40;99.90
12446;DHT22;6287;50.984;7.022;2022-11-20T05:28:27;3.40;99.90
12446;DHT22;6287;50.984;7.022;2022-11-20T05:30:53;3.40;99.90
12446;DHT22;6287;50.984;7.022;2022-11-20T05:33:19;3.50;99.90
12446;DHT22;6287;50.984;7.022;2022-11-20T05:35:48;3.50;99.90
12446;DHT22;6287;50.984;7.022;2022-11-20T05:38:14;3.50;99.90
12446;DHT22;6287;50.984;7.022;2022-11-20T05:40:42;3.60;99.90
12446;DHT22;6287;50.984;7.022;2022-11-20T05:43:08;3.60;99.90
12446;DHT22;6287;50.984;7.022;2022-11-20T05:45:38;3.60;99.90
12446;DHT22;6287;50.984;7.022;2022-11-20T05:48:04;3.60;99.90
12446;DHT22;6287;50.984;7.022;2022-11-20T05:50:29;3.60;99.90
12446;DHT22;6287;50.984;7.022;2022-11-20T05:52:58;3.60;99.90
12446;DHT22;6287;50.984;7.022;2022-11-20T05:55:23;3.60;99.90
12446;DHT22;6287;50.984;7.022;2022-11-20T05:57:49;3.60;99.90
12446;DHT22;6287;50.984;7.022;2022-11-20T06:00:17;3.70;99.90
12446;DHT22;6287;50.984;7.022;2022-11-20T06:02:45;3.70;99.90
12446;DHT22;6287;50.984;7.022;2022-11-20T06:05:11;3.70;99.90
12446;DHT22;6287;50.984;7.022;2022-11-20T06:07:36;3.70;99.90
12446;DHT22;6287;50.984;7.022;2022-11-20T06:10:02;3.70;99.90
12446;DHT22;6287;50.984;7.022;2022-11-20T06:12:31;3.60;99.90
12446;DHT22;6287;50.984;7.022;2022-11-20T06:15:00;3.70;99.90
12446;DHT22;6287;50.984;7.022;2022-11-20T06:17:28;3.70;99.90
12446;DHT22;6287;50.984;7.022;2022-11-20T06:19:58;3.70;99.90
12446;DHT22;6287;50.984;7.022;2022-11-20T06:22:26;3.60;99.90
12446;DHT22;6287;50.984;7.022;2022-11-20T06:24:52;3.60;99.90
12446;DHT22;6287;50.984;7.022;2022-11-20T06:27:19;3.60;99.90
12446;DHT22;6287;50.984;7.022;2022-11-20T06:29:47;3.60;99.90
12446;DHT22;6287;50.984;7.022;2022-11-20T06:32:15;3.60;99.90
12446;DHT22;6287;50.984;7.022;2022-11-20T06:34:40;3.60;99.90
12446;DHT22;6287;50.984;7.022;2022-11-20T06:37:06;3.60;99.90
12446;DHT22;6287;50.984;7.022;2022-11-20T06:39:31;3.70;99.90
12446;DHT22;6287;50.984;7.022;2022-11-20T06:42:00;3.70;99.90
12446;DHT22;6287;50.984;7.022;2022-11-20T06:44:28;3.60;99.90
12446;DHT22;6287;50.984;7.022;2022-11-20T06:46:55;3.60;99.90
12446;DHT22;6287;50.984;7.022;2022-11-20T06:49:23;3.50;99.90
12446;DHT22;6287;50.984;7.022;2022-11-20T06:51:50;3.40;99.90
12446;DHT22;6287;50.984;7.022;2022-11-20T06:54:15;3.40;99.90
12446;DHT22;6287;50.984;7.022;2022-11-20T06:56:41;3.40;99.90
12446;DHT22;6287;50.984;7.022;2022-11-20T06:59:09;3.40;99.90
12446;DHT22;6287;50.984;7.022;2022-11-20T07:01:34;3.40;99.90
12446;DHT22;6287;50.984;7.022;2022-11-20T07:04:02;3.40;99.90
12446;DHT22;6287;50.984;7.022;2022-11-20T07:06:30;3.40;99.90
12446;DHT22;6287;50.984;7.022;2022-11-20T07:08:56;3.40;99.90
12446;DHT22;6287;50.984;7.022;2022-11-20T07:11:22;3.40;99.90
12446;DHT22;6287;50.984;7.022;2022-11-20T07:13:50;3.40;99.90
12446;DHT22;6287;50.984;7.022;2022-11-20T07:16:16;3.40;99.90
12446;DHT22;6287;50.984;7.022;2022-11-20T07:18:44;3.40;99.90
12446;DHT22;6287;50.984;7.022;2022-11-20T07:21:12;3.40;99.90
12446;DHT22;6287;50.984;7.022;2022-11-20T07:23:38;3.50;99.90
12446;DHT22;6287;50.984;7.022;2022-11-20T07:26:06;3.50;99.90
12446;DHT22;6287;50.984;7.022;2022-11-20T07:28:37;3.50;99.90
12446;DHT22;6287;50.984;7.022;2022-11-20T07:31:05;3.50;99.90
12446;DHT22;6287;50.984;7.022;2022-11-20T07:33:32;3.50;99.90
12446;DHT22;6287;50.984;7.022;2022-11-20T07:36:01;3.60;99.90
12446;DHT22;6287;50.984;7.022;2022-11-20T07:38:27;3.60;99.90
12446;DHT22;6287;50.984;7.022;2022-11-20T07:40:56;3.60;99.90
12446;DHT22;6287;50.984;7.022;2022-11-20T07:43:26;3.60;99.90
12446;DHT22;6287;50.984;7.022;2022-11-20T07:45:55;3.60;99.90
12446;DHT22;6287;50.984;7.022;2022-11-20T07:48:21;3.60;99.90
12446;DHT22;6287;50.984;7.022;2022-11-20T07:50:47;3.70;99.90
12446;DHT22;6287;50.984;7.022;2022-11-20T07:53:12;3.60;99.90
12446;DHT22;6287;50.984;7.022;2022-11-20T07:55:48;3.60;99.90
12446;DHT22;6287;50.984;7.022;2022-11-20T07:58:16;3.70;99.90
12446;DHT22;6287;50.984;7.022;2022-11-20T08:00:44;3.70;99.90
12446;DHT22;6287;50.984;7.022;2022-11-20T08:03:09;3.80;99.90
12446;DHT22;6287;50.984;7.022;2022-11-20T08:05:37;3.80;99.90
12446;DHT22;6287;50.984;7.022;2022-11-20T08:08:04;3.90;99.90
12446;DHT22;6287;50.984;7.022;2022-11-20T08:10:34;3.90;99.90
12446;DHT22;6287;50.984;7.022;2022-11-20T08:13:05;3.90;99.90
12446;DHT22;6287;50.984;7.022;2022-11-20T08:15:50;3.90;99.90
12446;DHT22;6287;50.984;7.022;2022-11-20T08:18:16;4.00;99.90
12446;DHT22;6287;50.984;7.022;2022-11-20T08:20:45;4.10;99.90
12446;DHT22;6287;50.984;7.022;2022-11-20T08:23:11;4.10;99.90
12446;DHT22;6287;50.984;7.022;2022-11-20T08:25:37;4.20;99.90
12446;DHT22;6287;50.984;7.022;2022-11-20T08:28:06;4.30;99.90
12446;DHT22;6287;50.984;7.022;2022-11-20T08:30:34;4.30;99.90
12446;DHT22;6287;50.984;7.022;2022-11-20T08:33:07;4.40;99.90
12446;DHT22;6287;50.984;7.022;2022-11-20T08:35:37;4.40;99.90
12446;DHT22;6287;50.984;7.022;2022-11-20T08:38:04;4.40;99.90
12446;DHT22;6287;50.984;7.022;2022-11-20T08:40:30;4.50;99.90
12446;DHT22;6287;50.984;7.022;2022-11-20T08:42:56;4.60;99.90
12446;DHT22;6287;50.984;7.022;2022-11-20T08:45:24;4.60;99.90
12446;DHT22;6287;50.984;7.022;2022-11-20T08:47:52;4.60;99.90
12446;DHT22;6287;50.984;7.022;2022-11-20T08:50:18;4.70;99.90
12446;DHT22;6287;50.984;7.022;2022-11-20T08:52:46;4.80;99.90
12446;DHT22;6287;50.984;7.022;2022-11-20T08:55:12;4.80;99.90
12446;DHT22;6287;50.984;7.022;2022-11-20T08:57:38;4.80;99.90
12446;DHT22;6287;50.984;7.022;2022-11-20T09:00:07;4.80;99.90
12446;DHT22;6287;50.984;7.022;2022-11-20T09:02:33;4.90;99.90
12446;DHT22;6287;50.984;7.022;2022-11-20T09:05:01;4.90;99.90
12446;DHT22;6287;50.984;7.022;2022-11-20T09:07:28;4.90;99.90
12446;DHT22;6287;50.984;7.022;2022-11-20T09:09:53;4.90;99.90
12446;DHT22;6287;50.984;7.022;2022-11-20T09:12:19;5.00;99.90
12446;DHT22;6287;50.984;7.022;2022-11-20T09:14:49;5.00;99.90
12446;DHT22;6287;50.984;7.022;2022-11-20T09:17:15;5.10;99.90
12446;DHT22;6287;50.984;7.022;2022-11-20T09:19:40;5.10;99.90
12446;DHT22;6287;50.984;7.022;2022-11-20T09:22:08;5.10;99.90
12446;DHT22;6287;50.984;7.022;2022-11-20T09:24:34;5.20;99.90
12446;DHT22;6287;50.984;7.022;2022-11-20T09:27:02;5.20;99.90
12446;DHT22;6287;50.984;7.022;2022-11-20T09:29:30;5.20;99.90
12446;DHT22;6287;50.984;7.022;2022-11-20T09:31:58;5.20;99.90
12446;DHT22;6287;50.984;7.022;2022-11-20T09:34:26;5.20;99.90
12446;DHT22;6287;50.984;7.022;2022-11-20T09:36:51;5.30;99.90
12446;DHT22;6287;50.984;7.022;2022-11-20T09:39:17;5.40;99.90
12446;DHT22;6287;50.984;7.022;2022-11-20T09:42:06;5.60;99.90
12446;DHT22;6287;50.984;7.022;2022-11-20T09:47:58;5.70;99.90
12446;DHT22;6287;50.984;7.022;2022-11-20T09:53:20;6.10;99.90
12446;DHT22;6287;50.984;7.022;2022-11-20T09:55:48;6.20;99.90
12446;DHT22;6287;50.984;7.022;2022-11-20T09:58:29;6.20;99.90
12446;DHT22;6287;50.984;7.022;2022-11-20T10:01:16;6.10;99.90
12446;DHT22;6287;50.984;7.022;2022-11-20T10:06:34;5.90;99.90
12446;DHT22;6287;50.984;7.022;2022-11-20T10:21:53;6.00;99.90
12446;DHT22;6287;50.984;7.022;2022-11-20T10:30:20;5.90;99.90
12446;DHT22;6287;50.984;7.022;2022-11-20T10:35:49;5.70;99.90
12446;DHT22;6287;50.984;7.022;2022-11-20T10:38:23;5.60;99.90
12446;DHT22;6287;50.984;7.022;2022-11-20T10:41:00;5.60;99.90
12446;DHT22;6287;50.984;7.022;2022-11-20T10:43:49;5.70;99.90
12446;DHT22;6287;50.984;7.022;2022-11-20T10:46:20;5.70;99.90
12446;DHT22;6287;50.984;7.022;2022-11-20T10:48:52;5.80;99.90
12446;DHT22;6287;50.984;7.022;2022-11-20T10:51:37;5.80;99.90
12446;DHT22;6287;50.984;7.022;2022-11-20T11:01:50;6.00;99.90
12446;DHT22;6287;50.984;7.022;2022-11-20T11:04:37;6.00;99.90
12446;DHT22;6287;50.984;7.022;2022-11-20T11:07:15;6.10;99.90
12446;DHT22;6287;50.984;7.022;2022-11-20T11:09:50;6.10;99.90
12446;DHT22;6287;50.984;7.022;2022-11-20T11:12:20;6.10;99.90
12446;DHT22;6287;50.984;7.022;2022-11-20T11:14:56;6.10;99.90
12446;DHT22;6287;50.984;7.022;2022-11-20T11:20:06;6.10;99.90
12446;DHT22;6287;50.984;7.022;2022-11-20T11:22:49;6.10;99.90
12446;DHT22;6287;50.984;7.022;2022-11-20T11:25:55;6.10;99.90
12446;DHT22;6287;50.984;7.022;2022-11-20T11:28:22;6.20;99.90
12446;DHT22;6287;50.984;7.022;2022-11-20T11:30:50;6.10;99.90
12446;DHT22;6287;50.984;7.022;2022-11-20T11:33:23;6.10;99.90
12446;DHT22;6287;50.984;7.022;2022-11-20T11:35:56;6.00;99.90
12446;DHT22;6287;50.984;7.022;2022-11-20T11:38:39;6.00;99.90
12446;DHT22;6287;50.984;7.022;2022-11-20T11:41:07;6.00;99.90
12446;DHT22;6287;50.984;7.022;2022-11-20T11:43:36;6.00;99.90
12446;DHT22;6287;50.984;7.022;2022-11-20T11:51:38;6.10;99.90
12446;DHT22;6287;50.984;7.022;2022-11-20T11:54:15;6.10;99.90
12446;DHT22;6287;50.984;7.022;2022-11-20T11:56:42;6.10;99.90
12446;DHT22;6287;50.984;7.022;2022-11-20T11:59:11;6.10;99.90
12446;DHT22;6287;50.984;7.022;2022-11-20T12:01:43;6.20;99.90
12446;DHT22;6287;50.984;7.022;2022-11-20T12:09:49;6.20;99.90
12446;DHT22;6287;50.984;7.022;2022-11-20T12:12:32;6.20;99.90
12446;DHT22;6287;50.984;7.022;2022-11-20T12:15:01;6.20;99.90
12446;DHT22;6287;50.984;7.022;2022-11-20T12:17:27;6.20;99.90
12446;DHT22;6287;50.984;7.022;2022-11-20T12:19:58;6.20;99.90
12446;DHT22;6287;50.984;7.022;2022-11-20T12:22:44;6.10;99.90
12446;DHT22;6287;50.984;7.022;2022-11-20T12:25:24;6.10;99.90
12446;DHT22;6287;50.984;7.022;2022-11-20T12:30:32;6.00;99.90
12446;DHT22;6287;50.984;7.022;2022-11-20T12:39:07;6.10;99.90
12446;DHT22;6287;50.984;7.022;2022-11-20T12:42:23;6.10;99.90
12446;DHT22;6287;50.984;7.022;2022-11-20T12:53:45;6.00;99.90
12446;DHT22;6287;50.984;7.022;2022-11-20T13:07:06;6.30;99.90
12446;DHT22;6287;50.984;7.022;2022-11-20T13:09:40;6.40;99.90
12446;DHT22;6287;50.984;7.022;2022-11-20T13:12:36;6.60;99.90
12446;DHT22;6287;50.984;7.022;2022-11-20T13:18:07;6.80;99.90
12446;DHT22;6287;50.984;7.022;2022-11-20T13:20:37;6.80;99.90
12446;DHT22;6287;50.984;7.022;2022-11-20T13:23:06;6.90;99.90
12446;DHT22;6287;50.984;7.022;2022-11-20T13:25:39;6.90;99.90
12446;DHT22;6287;50.984;7.022;2022-11-20T13:28:28;7.00;99.90
12446;DHT22;6287;50.984;7.022;2022-11-20T13:30:56;7.00;99.90
12446;DHT22;6287;50.984;7.022;2022-11-20T13:38:47;7.00;99.90
12446;DHT22;6287;50.984;7.022;2022-11-20T13:41:31;7.00;99.90
12446;DHT22;6287;50.984;7.022;2022-11-20T13:44:29;7.00;99.90
12446;DHT22;6287;50.984;7.022;2022-11-20T13:46:56;7.00;99.90
12446;DHT22;6287;50.984;7.022;2022-11-20T13:49:34;6.90;99.90
12446;DHT22;6287;50.984;7.022;2022-11-20T13:55:10;6.90;99.90
12446;DHT22;6287;50.984;7.022;2022-11-20T14:00:25;7.00;99.90
12446;DHT22;6287;50.984;7.022;2022-11-20T14:03:12;6.90;99.90
12446;DHT22;6287;50.984;7.022;2022-11-20T14:05:49;7.00;99.90
12446;DHT22;6287;50.984;7.022;2022-11-20T14:08:23;7.00;99.90
12446;DHT22;6287;50.984;7.022;2022-11-20T14:10:49;7.10;99.90
12446;DHT22;6287;50.984;7.022;2022-11-20T14:13:20;7.10;99.90
12446;DHT22;6287;50.984;7.022;2022-11-20T14:15:58;7.10;99.90
12446;DHT22;6287;50.984;7.022;2022-11-20T14:18:25;7.00;99.90
12446;DHT22;6287;50.984;7.022;2022-11-20T14:20:51;6.90;99.90
12446;DHT22;6287;50.984;7.022;2022-11-20T14:23:28;6.90;99.90
12446;DHT22;6287;50.984;7.022;2022-11-20T14:25:54;6.80;99.90
12446;DHT22;6287;50.984;7.022;2022-11-20T14:28:28;6.80;99.90
12446;DHT22;6287;50.984;7.022;2022-11-20T14:30:55;6.80;99.90
12446;DHT22;6287;50.984;7.022;2022-11-20T14:33:23;6.70;99.90
12446;DHT22;6287;50.984;7.022;2022-11-20T14:35:53;6.70;99.90
12446;DHT22;6287;50.984;7.022;2022-11-20T14:38:24;6.70;99.90
12446;DHT22;6287;50.984;7.022;2022-11-20T14:40:50;6.70;99.90
12446;DHT22;6287;50.984;7.022;2022-11-20T14:43:27;6.70;99.90
12446;DHT22;6287;50.984;7.022;2022-11-20T14:48:39;6.70;99.90
12446;DHT22;6287;50.984;7.022;2022-11-20T14:53:55;6.70;99.90
12446;DHT22;6287;50.984;7.022;2022-11-20T14:56:24;6.70;99.90
12446;DHT22;6287;50.984;7.022;2022-11-20T14:59:01;6.70;99.90
12446;DHT22;6287;50.984;7.022;2022-11-20T15:01:33;6.60;99.90
12446;DHT22;6287;50.984;7.022;2022-11-20T15:04:11;6.60;99.90
12446;DHT22;6287;50.984;7.022;2022-11-20T15:06:38;6.60;99.90
12446;DHT22;6287;50.984;7.022;2022-11-20T15:09:18;6.60;99.90
12446;DHT22;6287;50.984;7.022;2022-11-20T15:12:06;6.60;99.90
12446;DHT22;6287;50.984;7.022;2022-11-20T15:14:31;6.60;99.90
12446;DHT22;6287;50.984;7.022;2022-11-20T15:17:00;6.60;99.90
12446;DHT22;6287;50.984;7.022;2022-11-20T15:19:26;6.60;99.90
12446;DHT22;6287;50.984;7.022;2022-11-20T15:21:54;6.60;99.90
12446;DHT22;6287;50.984;7.022;2022-11-20T15:24:20;6.60;99.90
12446;DHT22;6287;50.984;7.022;2022-11-20T15:26:46;6.50;99.90
12446;DHT22;6287;50.984;7.022;2022-11-20T15:29:16;6.60;99.90
12446;DHT22;6287;50.984;7.022;2022-11-20T15:31:49;6.60;99.90
12446;DHT22;6287;50.984;7.022;2022-11-20T15:34:18;6.50;99.90
12446;DHT22;6287;50.984;7.022;2022-11-20T15:36:46;6.50;99.90
12446;DHT22;6287;50.984;7.022;2022-11-20T15:39:12;6.50;99.90
12446;DHT22;6287;50.984;7.022;2022-11-20T15:41:38;6.40;99.90
12446;DHT22;6287;50.984;7.022;2022-11-20T15:44:06;6.40;99.90
12446;DHT22;6287;50.984;7.022;2022-11-20T15:46:35;6.40;99.90
12446;DHT22;6287;50.984;7.022;2022-11-20T15:49:05;6.30;99.90
12446;DHT22;6287;50.984;7.022;2022-11-20T15:53:58;6.30;99.90
12446;DHT22;6287;50.984;7.022;2022-11-20T15:56:25;6.30;99.90
12446;DHT22;6287;50.984;7.022;2022-11-20T15:58:53;7.90;99.90
12446;DHT22;6287;50.984;7.022;2022-11-20T16:01:21;6.30;99.90
12446;DHT22;6287;50.984;7.022;2022-11-20T16:03:47;6.30;99.90
12446;DHT22;6287;50.984;7.022;2022-11-20T16:06:15;6.40;99.90
12446;DHT22;6287;50.984;7.022;2022-11-20T16:08:45;6.30;99.90
12446;DHT22;6287;50.984;7.022;2022-11-20T16:11:15;6.30;99.90
12446;DHT22;6287;50.984;7.022;2022-11-20T16:13:42;6.30;99.90
12446;DHT22;6287;50.984;7.022;2022-11-20T16:18:59;6.30;99.90
12446;DHT22;6287;50.984;7.022;2022-11-20T16:21:26;6.30;99.90
12446;DHT22;6287;50.984;7.022;2022-11-20T16:24:04;6.30;99.90
12446;DHT22;6287;50.984;7.022;2022-11-20T16:26:37;6.30;99.90
12446;DHT22;6287;50.984;7.022;2022-11-20T16:29:06;6.40;99.90
12446;DHT22;6287;50.984;7.022;2022-11-20T16:31:32;6.50;99.90
12446;DHT22;6287;50.984;7.022;2022-11-20T16:34:02;6.40;99.90
12446;DHT22;6287;50.984;7.022;2022-11-20T16:36:29;6.40;99.90
12446;DHT22;6287;50.984;7.022;2022-11-20T16:39:00;6.40;99.90
12446;DHT22;6287;50.984;7.022;2022-11-20T16:41:27;6.50;99.90
12446;DHT22;6287;50.984;7.022;2022-11-20T16:44:00;6.50;99.90
12446;DHT22;6287;50.984;7.022;2022-11-20T16:46:31;6.50;99.90
12446;DHT22;6287;50.984;7.022;2022-11-20T16:49:01;6.50;99.90
12446;DHT22;6287;50.984;7.022;2022-11-20T16:51:29;6.50;99.90
12446;DHT22;6287;50.984;7.022;2022-11-20T16:54:01;6.40;99.90
12446;DHT22;6287;50.984;7.022;2022-11-20T16:56:27;6.50;99.90
12446;DHT22;6287;50.984;7.022;2022-11-20T16:58:54;6.50;99.90
12446;DHT22;6287;50.984;7.022;2022-11-20T17:01:24;6.50;99.90
12446;DHT22;6287;50.984;7.022;2022-11-20T17:06:25;6.50;99.90
12446;DHT22;6287;50.984;7.022;2022-11-20T17:08:53;6.50;99.90
12446;DHT22;6287;50.984;7.022;2022-11-20T17:11:21;6.50;99.90
12446;DHT22;6287;50.984;7.022;2022-11-20T17:13:51;6.50;99.90
12446;DHT22;6287;50.984;7.022;2022-11-20T17:16:20;6.50;99.90
12446;DHT22;6287;50.984;7.022;2022-11-20T17:18:52;6.40;99.90
12446;DHT22;6287;50.984;7.022;2022-11-20T17:21:23;6.40;99.90
12446;DHT22;6287;50.984;7.022;2022-11-20T17:23:48;6.40;99.90
12446;DHT22;6287;50.984;7.022;2022-11-20T17:26:22;6.40;99.90
12446;DHT22;6287;50.984;7.022;2022-11-20T17:29:02;6.40;99.90
12446;DHT22;6287;50.984;7.022;2022-11-20T17:31:30;6.40;99.90
12446;DHT22;6287;50.984;7.022;2022-11-20T17:33:59;6.40;99.90
12446;DHT22;6287;50.984;7.022;2022-11-20T17:36:28;6.30;99.90
12446;DHT22;6287;50.984;7.022;2022-11-20T17:38:58;6.40;99.90
12446;DHT22;6287;50.984;7.022;2022-11-20T17:41:26;6.40;99.90
12446;DHT22;6287;50.984;7.022;2022-11-20T17:43:57;6.30;99.90
12446;DHT22;6287;50.984;7.022;2022-11-20T17:46:25;6.30;99.90
12446;DHT22;6287;50.984;7.022;2022-11-20T17:48:51;6.30;99.90
12446;DHT22;6287;50.984;7.022;2022-11-20T17:51:19;6.30;99.90
12446;DHT22;6287;50.984;7.022;2022-11-20T17:53:48;6.30;99.90
12446;DHT22;6287;50.984;7.022;2022-11-20T17:56:15;6.30;99.90
12446;DHT22;6287;50.984;7.022;2022-11-20T17:59:02;6.30;99.90
12446;DHT22;6287;50.984;7.022;2022-11-20T18:01:31;6.30;99.90
12446;DHT22;6287;50.984;7.022;2022-11-20T18:03:56;6.30;99.90
12446;DHT22;6287;50.984;7.022;2022-11-20T18:06:24;6.30;99.90
12446;DHT22;6287;50.984;7.022;2022-11-20T18:08:52;6.30;99.90
12446;DHT22;6287;50.984;7.022;2022-11-20T18:11:29;6.30;99.90
12446;DHT22;6287;50.984;7.022;2022-11-20T18:13:57;6.30;99.90